Baltimore, Maryland
Current Conditions -  °F | °C
As of 6:54 PM on Wednesday 22 Oct 2014 (Local Time) from KBWI Reporting Station
Light Rain Light Rain  
Wind Chill: 12°   Ceiling: 7000
Heat Index: 12°   Visibility: 10mi
Dew Point:   Wind: 9mph
Humidity: 77%   Direction: 330°NNW
Pressure: 29.91"   Gusts: 18mph
Location:  39.29°N, 76.61°W
Report Text: KBWI 222254Z 33008G16KT 10SM -RA FEW032 SCT055 OVC070 12/08 A2991 RMK AO2 RAE2155B18E32B52 SLP128 P0000 T01220083
Loading
Personal Weather Stations






























Interactive Weather Map
Tropical Storm Tracking
New forecast layout! Learn more

10-Day Weather Forecast

Advertisements
Track Severe Weather on mobile